Time;durP1;ratioP1;P1;durP2;ratioP2;P2;SDS_P1;SDS_P2;PMS_P1;PMS_P2;Temp;Humidity;BMP_temperature;BMP_pressure;BME280_temperature;BME280_humidity;BME280_pressure;Samples;Min_cycle;Max_cycle;Signal;HPM_P1;HPM_P2
2024/03/07 00:00:17;;;;;;;23.47;8.33;;;;;;;-2.15;49.28;100260.34;4919487;29;20146;-68
2024/03/07 00:02:48;;;;;;;20.87;7.63;;;;;;;-2.20;49.85;100251.91;4939071;29;20374;-69
2024/03/07 00:05:18;;;;;;;15.95;5.95;;;;;;;-2.31;49.68;100254.09;4938299;29;20051;-67
2024/03/07 00:07:51;;;;;;;19.40;7.20;;;;;;;-2.39;50.43;100243.16;4934923;29;20079;-67
2024/03/07 00:10:17;;;;;;;18.20;6.03;;;;;;;-2.51;50.68;100246.25;4954355;29;20449;-68
2024/03/07 00:12:45;;;;;;;19.00;6.77;;;;;;;-2.67;51.14;100243.44;4938581;29;20078;-68
2024/03/07 00:15:12;;;;;;;15.73;6.47;;;;;;;-2.64;51.81;100245.03;4978077;28;20054;-69
2024/03/07 00:17:39;;;;;;;14.67;6.03;;;;;;;-2.72;51.85;100257.53;4963819;28;20473;-68
2024/03/07 00:20:14;;;;;;;16.97;5.57;;;;;;;-2.78;52.21;100249.97;4960709;28;20493;-68
2024/03/07 00:22:41;;;;;;;21.93;6.00;;;;;;;-2.80;52.64;100243.97;4991175;28;20058;-68
2024/03/07 00:25:08;;;;;;;11.40;5.53;;;;;;;-2.81;53.51;100237.06;4960326;28;20057;-68
2024/03/07 00:27:35;;;;;;;13.93;5.53;;;;;;;-2.85;53.34;100232.91;4945084;28;20137;-68
2024/03/07 00:30:05;;;;;;;16.63;5.77;;;;;;;-2.83;53.52;100242.31;4960664;28;20058;-68
2024/03/07 00:32:36;;;;;;;19.37;5.90;;;;;;;-2.92;53.48;100240.09;4961472;28;20072;-69
2024/03/07 00:35:05;;;;;;;11.87;4.80;;;;;;;-2.90;53.23;100240.03;4961478;28;20050;-68
2024/03/07 00:37:32;;;;;;;14.88;5.97;;;;;;;-2.92;53.27;100240.09;4962232;28;20459;-69
2024/03/07 00:39:58;;;;;;;10.77;5.43;;;;;;;-2.91;53.38;100240.94;4948047;28;20150;-68
2024/03/07 00:42:25;;;;;;;17.83;6.13;;;;;;;-2.90;53.25;100237.44;4964114;28;20045;-68
2024/03/07 00:44:53;;;;;;;16.40;5.30;;;;;;;-2.84;53.39;100238.03;4963841;28;20128;-69
2024/03/07 00:47:19;;;;;;;13.63;5.27;;;;;;;-2.88;53.60;100236.47;4979770;28;20058;-68
2024/03/07 00:49:50;;;;;;;15.30;5.40;;;;;;;-2.86;54.41;100239.03;4963377;28;20053;-66
2024/03/07 00:52:17;;;;;;;12.07;5.18;;;;;;;-2.85;54.72;100232.91;5036258;28;20040;-66
2024/03/07 00:54:43;;;;;;;9.50;5.07;;;;;;;-2.88;54.79;100233.88;4987677;28;20048;-66
2024/03/07 00:57:10;;;;;;;12.10;5.10;;;;;;;-2.90;55.00;100237.44;5020127;28;20040;-66
2024/03/07 00:59:36;;;;;;;8.93;4.73;;;;;;;-2.91;54.78;100226.22;4979178;28;20594;-66
2024/03/07 01:02:02;;;;;;;11.70;4.43;;;;;;;-2.90;55.16;100233.09;4979452;28;20054;-66
2024/03/07 01:04:33;;;;;;;9.33;4.70;;;;;;;-2.90;55.34;100237.44;4963983;28;20046;-66
2024/03/07 01:07:00;;;;;;;8.23;4.20;;;;;;;-2.92;55.78;100234.06;4976159;28;20054;-66
2024/03/07 01:09:28;;;;;;;10.57;4.63;;;;;;;-2.91;56.00;100235.75;4928139;28;20062;-66
2024/03/07 01:11:55;;;;;;;12.93;5.03;;;;;;;-2.93;57.19;100229.75;4944145;28;20054;-66
2024/03/07 01:14:23;;;;;;;11.70;5.60;;;;;;;-2.86;57.59;100232.03;4955904;28;20051;-67
2024/03/07 01:16:50;;;;;;;16.67;5.77;;;;;;;-2.81;58.28;100229.25;4956383;28;20058;-67
2024/03/07 01:19:17;;;;;;;16.03;6.03;;;;;;;-2.90;57.90;100219.22;4940265;28;20082;-67
2024/03/07 01:21:45;;;;;;;15.50;5.20;;;;;;;-2.91;58.48;100225.34;4924829;28;20046;-67
2024/03/07 01:24:17;;;;;;;14.77;6.37;;;;;;;-3.04;58.87;100222.38;4948236;28;20050;-66
2024/03/07 01:26:44;;;;;;;13.13;5.10;;;;;;;-3.01;59.00;100224.03;4913448;28;20050;-67
2024/03/07 01:29:13;;;;;;;14.90;5.57;;;;;;;-3.13;60.43;100217.53;4975990;28;20058;-67
2024/03/07 01:31:40;;;;;;;10.20;4.90;;;;;;;-3.19;60.86;100214.31;4991970;28;20054;-67
2024/03/07 01:34:10;;;;;;;14.87;5.87;;;;;;;-3.22;60.62;100217.91;4975593;28;20515;-67
2024/03/07 01:36:37;;;;;;;19.37;5.60;;;;;;;-3.35;60.09;100218.44;4931222;28;20062;-67
2024/03/07 01:39:05;;;;;;;10.47;5.50;;;;;;;-3.39;59.00;100215.09;4921024;29;20066;-67
2024/03/07 01:41:30;;;;;;;11.77;4.97;;;;;;;-3.43;58.97;100220.44;4937086;28;20051;-67
2024/03/07 01:43:57;;;;;;;10.80;5.07;;;;;;;-3.41;58.71;100213.47;4936776;28;20062;-66
2024/03/07 01:46:24;;;;;;;13.03;5.20;;;;;;;-3.43;58.99;100210.94;4937543;28;20048;-67
2024/03/07 01:48:50;;;;;;;11.80;4.90;;;;;;;-3.47;57.35;100215.38;4921252;29;20057;-67
2024/03/07 01:51:16;;;;;;;13.57;5.20;;;;;;;-3.55;56.17;100211.34;4945942;28;20349;-66
2024/03/07 01:53:42;;;;;;;13.80;5.50;;;;;;;-3.54;56.22;100208.69;4959420;28;20468;-67
2024/03/07 01:56:09;;;;;;;11.33;5.60;;;;;;;-3.59;55.97;100209.78;4975372;28;20050;-66
2024/03/07 01:58:36;;;;;;;9.70;4.80;;;;;;;-3.63;54.84;100210.81;4937037;29;20117;-66
2024/03/07 02:01:02;;;;;;;14.03;4.70;;;;;;;-3.68;54.16;100204.94;4951588;28;20133;-66
2024/03/07 02:03:31;;;;;;;10.70;4.13;;;;;;;-3.69;54.11;100209.28;4936804;29;20355;-68
2024/03/07 02:06:00;;;;;;;10.30;4.60;;;;;;;-3.77;54.43;100200.09;4953374;28;20058;-67
2024/03/07 02:08:27;;;;;;;11.93;4.47;;;;;;;-3.77;54.27;100200.91;4921487;29;20051;-66
2024/03/07 02:10:53;;;;;;;8.33;4.33;;;;;;;-3.72;54.20;100198.19;4936970;29;20138;-66
2024/03/07 02:13:19;;;;;;;10.20;4.00;;;;;;;-3.72;54.09;100190.38;4952345;28;20476;-69
2024/03/07 02:15:45;;;;;;;11.30;4.00;;;;;;;-3.79;53.87;100194.09;4921081;29;20047;-66
2024/03/07 02:18:11;;;;;;;10.30;4.93;;;;;;;-3.79;54.35;100196.69;4936082;29;20149;-66
2024/03/07 02:20:46;;;;;;;12.30;4.30;;;;;;;-3.79;54.27;100192.34;4969923;28;20062;-66
2024/03/07 02:23:12;;;;;;;7.90;3.87;;;;;;;-3.90;54.55;100191.03;4977869;28;20053;-67
2024/03/07 02:25:38;;;;;;;9.97;5.10;;;;;;;-3.89;55.01;100196.16;4977656;28;20060;-66
2024/03/07 02:28:05;;;;;;;6.57;3.90;;;;;;;-3.87;54.83;100191.78;4961709;28;20136;-66
2024/03/07 02:30:32;;;;;;;7.47;3.63;;;;;;;-3.84;55.23;100194.25;5012320;28;20074;-67
2024/03/07 02:33:07;;;;;;;8.20;4.37;;;;;;;-3.83;54.93;100190.75;5000341;28;20053;-69
2024/03/07 02:35:35;;;;;;;9.50;4.07;;;;;;;-3.86;55.06;100188.28;5014132;28;20111;-68
2024/03/07 02:38:08;;;;;;;6.40;3.60;;;;;;;-3.85;55.48;100182.19;5051187;28;20156;-68
2024/03/07 02:40:34;;;;;;;8.97;3.30;;;;;;;-3.91;55.56;100190.22;5052236;28;20138;-67
2024/03/07 02:43:04;;;;;;;14.27;4.57;;;;;;;-3.96;55.75;100189.50;5051971;28;20052;-68
2024/03/07 02:45:30;;;;;;;15.20;4.73;;;;;;;-3.96;56.13;100178.28;5020029;28;20094;-68
2024/03/07 02:47:57;;;;;;;10.77;3.87;;;;;;;-4.02;56.29;100176.78;5019057;28;20055;-68
2024/03/07 02:50:25;;;;;;;9.60;4.37;;;;;;;-4.03;56.50;100177.66;5052325;28;20132;-68
2024/03/07 02:52:52;;;;;;;11.73;5.13;;;;;;;-4.09;56.97;100177.88;5035762;28;20036;-68
2024/03/07 02:55:24;;;;;;;13.57;4.50;;;;;;;-4.14;57.37;100181.53;5003030;28;20115;-71
2024/03/07 02:57:50;;;;;;;10.03;4.10;;;;;;;-4.24;57.85;100172.38;5019585;28;20080;-68
2024/03/07 03:00:19;;;;;;;12.87;4.73;;;;;;;-4.28;58.08;100171.66;4996316;28;20061;-67
2024/03/07 03:02:48;;;;;;;19.80;4.87;;;;;;;-4.24;58.32;100175.81;5013414;28;20145;-66
2024/03/07 03:05:15;;;;;;;12.50;4.13;;;;;;;-4.22;58.46;100168.84;5012749;28;20135;-66
2024/03/07 03:07:42;;;;;;;7.03;4.20;;;;;;;-4.29;58.37;100166.53;5012483;28;20045;-66
2024/03/07 03:10:10;;;;;;;11.23;3.87;;;;;;;-4.34;58.16;100169.28;4975764;28;20598;-68
2024/03/07 03:12:40;;;;;;;8.33;3.93;;;;;;;-4.28;58.50;100170.78;4978884;28;20396;-70
2024/03/07 03:15:07;;;;;;;8.17;4.30;;;;;;;-4.36;58.29;100168.47;4993182;28;20060;-73
2024/03/07 03:17:33;;;;;;;11.30;4.17;;;;;;;-4.40;58.50;100171.22;4977363;28;20086;-71
2024/03/07 03:20:15;;;;;;;8.15;3.65;;;;;;;-4.40;58.16;100161.72;4977132;28;20164;-71
2024/03/07 03:22:43;;;;;;;12.33;3.80;;;;;;;-4.49;58.70;100172.38;4885563;29;20056;-73
2024/03/07 03:25:12;;;;;;;8.25;3.90;;;;;;;-4.58;58.85;100172.69;4897199;29;20071;-74
2024/03/07 03:27:41;;;;;;;12.50;4.60;;;;;;;-4.66;59.20;100169.53;4885190;29;20052;-71
2024/03/07 03:30:07;;;;;;;9.10;3.60;;;;;;;-4.73;59.47;100182.69;4900632;29;20070;-70
2024/03/07 03:32:38;;;;;;;9.83;3.50;;;;;;;-4.75;60.17;100169.78;4904696;29;20059;-69
2024/03/07 03:35:06;;;;;;;6.47;3.33;;;;;;;-4.79;60.09;100175.13;4920441;29;20063;-69
2024/03/07 03:37:32;;;;;;;9.93;3.83;;;;;;;-4.87;59.65;100177.97;4933487;29;20070;-68
2024/03/07 03:39:58;;;;;;;5.63;3.13;;;;;;;-4.83;60.36;100179.59;4904316;29;20055;-71
2024/03/07 03:42:28;;;;;;;5.97;3.60;;;;;;;-4.78;59.51;100174.25;4920328;29;20065;-66
2024/03/07 03:44:54;;;;;;;6.93;3.23;;;;;;;-4.82;58.55;100177.81;4904149;28;20118;-69
2024/03/07 03:47:24;;;;;;;7.77;3.07;;;;;;;-4.76;58.07;100172.44;4916830;29;20052;-67
2024/03/07 03:49:51;;;;;;;6.80;3.00;;;;;;;-4.77;57.60;100170.75;4901203;29;20060;-68
2024/03/07 03:52:17;;;;;;;7.93;3.67;;;;;;;-4.80;57.28;100170.84;4916933;29;20062;-68
2024/03/07 03:54:43;;;;;;;5.70;3.37;;;;;;;-4.81;57.64;100172.59;4884966;29;20559;-68
2024/03/07 03:57:10;;;;;;;6.03;3.30;;;;;;;-4.75;57.78;100164.59;4905606;29;20117;-68
2024/03/07 03:59:44;;;;;;;7.95;3.40;;;;;;;-4.72;57.83;100172.28;4923270;29;20057;-69
2024/03/07 04:02:13;;;;;;;6.37;3.40;;;;;;;-4.73;58.29;100172.34;4936943;29;20122;-69
2024/03/07 04:04:42;;;;;;;7.23;3.60;;;;;;;-4.72;58.36;100166.28;4919382;29;20561;-69
2024/03/07 04:07:10;;;;;;;7.27;3.17;;;;;;;-4.70;58.46;100159.28;4920285;29;20138;-69
2024/03/07 04:09:36;;;;;;;7.87;3.50;;;;;;;-4.78;58.52;100163.88;4903370;29;20106;-69
2024/03/07 04:12:02;;;;;;;12.00;3.80;;;;;;;-4.77;58.80;100156.06;4936128;29;20707;-69
2024/03/07 04:14:32;;;;;;;6.73;3.10;;;;;;;-4.75;58.89;100156.84;4920568;29;20494;-69
2024/03/07 04:17:02;;;;;;;7.53;3.33;;;;;;;-4.73;58.71;100155.06;4929332;29;20087;-69
2024/03/07 04:19:30;;;;;;;7.77;3.50;;;;;;;-4.67;58.42;100156.59;4864817;29;20091;-69
2024/03/07 04:21:58;;;;;;;6.63;3.13;;;;;;;-4.65;58.08;100160.84;4884415;29;20048;-69
2024/03/07 04:24:25;;;;;;;7.80;3.53;;;;;;;-4.66;58.16;100168.66;4924160;29;20067;-70
2024/03/07 04:26:53;;;;;;;10.70;3.67;;;;;;;-4.64;57.94;100156.50;4937372;29;20050;-69
2024/03/07 04:29:20;;;;;;;5.53;2.87;;;;;;;-4.62;57.53;100149.50;4922078;29;20046;-69
2024/03/07 04:31:48;;;;;;;13.87;4.03;;;;;;;-4.59;57.52;100152.84;4922023;29;20051;-69
2024/03/07 04:34:14;;;;;;;7.37;3.80;;;;;;;-4.61;57.42;100152.03;4922899;29;20138;-69
2024/03/07 04:36:43;;;;;;;10.03;3.80;;;;;;;-4.49;57.69;100156.00;4940868;28;20198;-70
2024/03/07 04:39:22;;;;;;;8.00;4.00;;;;;;;-4.52;57.27;100146.56;4960305;28;20168;-70
2024/03/07 04:41:49;;;;;;;10.05;3.75;;;;;;;-4.45;57.04;100158.41;4968234;28;20509;-70
2024/03/07 04:44:22;;;;;;;9.00;3.87;;;;;;;-4.49;56.63;100156.81;4965672;28;20043;-69
2024/03/07 04:46:55;;;;;;;6.00;3.30;;;;;;;-4.34;56.54;100145.94;4977095;28;20042;-69
2024/03/07 04:49:24;;;;;;;7.73;3.73;;;;;;;-4.29;55.66;100149.19;4959707;28;20037;-69
2024/03/07 04:51:53;;;;;;;9.50;2.87;;;;;;;-4.25;55.38;100150.81;5007780;28;20052;-69
2024/03/07 04:54:20;;;;;;;6.03;3.00;;;;;;;-4.26;54.68;100148.25;4985322;28;20078;-70
2024/03/07 04:56:46;;;;;;;10.53;3.20;;;;;;;-4.28;54.54;100150.91;4974522;28;20096;-70
2024/03/07 04:59:16;;;;;;;5.73;3.10;;;;;;;-4.26;54.16;100138.72;4988026;28;20053;-69
2024/03/07 05:01:43;;;;;;;5.43;2.70;;;;;;;-4.16;53.88;100140.09;4989435;28;20475;-69
2024/03/07 05:04:09;;;;;;;6.87;3.37;;;;;;;-4.21;54.03;100141.16;5004584;28;20049;-69
2024/03/07 05:06:35;;;;;;;9.93;3.20;;;;;;;-4.14;53.90;100138.31;4989460;28;20125;-68
2024/03/07 05:09:03;;;;;;;4.97;2.80;;;;;;;-4.06;53.88;100135.44;4987699;28;20535;-68
2024/03/07 05:11:42;;;;;;;6.03;2.87;;;;;;;-3.96;53.96;100141.97;4988304;28;20108;-69
2024/03/07 05:14:07;;;;;;;5.93;3.00;;;;;;;-3.97;53.65;100146.34;5003362;28;20038;-69
2024/03/07 05:16:37;;;;;;;7.77;2.90;;;;;;;-3.82;53.28;100147.50;5013920;28;20048;-71
2024/03/07 05:19:05;;;;;;;7.03;3.00;;;;;;;-3.82;53.14;100135.38;5028736;28;20383;-71
2024/03/07 05:24:20;;;;;;;6.27;2.70;;;;;;;-3.62;52.64;100148.47;5027986;28;20291;-70
2024/03/07 05:26:47;;;;;;;4.43;2.70;;;;;;;-3.63;52.45;100140.72;4988313;28;20049;-71
2024/03/07 05:29:17;;;;;;;5.67;3.13;;;;;;;-3.58;52.34;100142.25;4973221;28;20507;-72
2024/03/07 05:31:48;;;;;;;6.97;3.00;;;;;;;-3.54;51.95;100148.16;4957804;28;20042;-72
2024/03/07 05:34:20;;;;;;;7.93;3.77;;;;;;;-3.57;52.05;100141.31;4942984;28;20050;-71
2024/03/07 05:36:48;;;;;;;5.40;3.30;;;;;;;-3.53;52.13;100149.84;4973067;28;20056;-72
2024/03/07 05:39:17;;;;;;;8.93;3.53;;;;;;;-3.48;51.64;100147.94;4974188;28;20042;-72
2024/03/07 05:41:48;;;;;;;9.13;3.70;;;;;;;-3.43;51.39;100140.81;4975933;28;20050;-71
2024/03/07 05:44:14;;;;;;;8.32;3.22;;;;;;;-3.37;51.15;100152.72;4975988;28;20057;-72
2024/03/07 05:46:46;;;;;;;9.10;4.40;;;;;;;-3.32;50.75;100148.19;4959337;28;20117;-71
2024/03/07 05:49:14;;;;;;;11.67;4.07;;;;;;;-3.30;51.12;100147.22;4975948;28;20469;-71
2024/03/07 05:51:47;;;;;;;10.03;3.53;;;;;;;-3.22;50.66;100146.91;4975550;28;20062;-72
2024/03/07 05:54:13;;;;;;;10.07;4.13;;;;;;;-3.16;50.73;100149.28;4944034;28;20057;-71
2024/03/07 05:56:40;;;;;;;9.00;4.03;;;;;;;-3.08;50.33;100140.28;4960411;28;20038;-71
2024/03/07 05:59:09;;;;;;;7.17;3.93;;;;;;;-2.99;49.73;100149.44;4994987;28;20060;-71
2024/03/07 06:01:40;;;;;;;5.87;3.80;;;;;;;-2.83;49.89;100147.94;4947175;28;20193;-72
2024/03/07 06:04:06;;;;;;;8.70;4.55;;;;;;;-2.80;49.76;100145.22;4994958;28;20052;-71
2024/03/07 06:06:41;;;;;;;9.03;4.30;;;;;;;-2.69;49.79;100143.84;4947082;28;20076;-71
2024/03/07 06:09:13;;;;;;;10.50;3.90;;;;;;;-2.61;49.25;100143.53;4915307;29;20479;-71
2024/03/07 06:11:44;;;;;;;13.13;4.40;;;;;;;-2.59;49.17;100145.16;4916313;29;20052;-71
2024/03/07 06:14:16;;;;;;;12.27;5.22;;;;;;;-2.60;48.81;100137.44;4920086;29;20050;-71
2024/03/07 06:16:43;;;;;;;14.27;4.43;;;;;;;-2.52;48.75;100132.78;4921129;29;20059;-71
2024/03/07 06:19:15;;;;;;;11.17;4.67;;;;;;;-2.41;48.56;100122.72;4921319;29;20066;-72
2024/03/07 06:21:41;;;;;;;11.93;4.50;;;;;;;-2.41;48.45;100120.13;4901915;29;20067;-71
2024/03/07 06:24:10;;;;;;;8.77;4.50;;;;;;;-2.24;48.09;100125.44;4904056;29;20059;-72
2024/03/07 06:26:49;;;;;;;8.10;3.83;;;;;;;-2.06;47.76;100127.28;4920961;29;20118;-72
2024/03/07 06:29:18;;;;;;;10.60;4.43;;;;;;;-1.85;47.32;100121.09;4884826;29;20384;-71
2024/03/07 06:31:48;;;;;;;11.87;4.60;;;;;;;-1.76;46.61;100136.31;4845942;29;20053;-73
2024/03/07 06:34:17;;;;;;;9.30;4.83;;;;;;;-1.66;47.16;100128.91;4842771;29;20053;-72
2024/03/07 06:37:02;;;;;;;14.57;5.27;;;;;;;-1.57;46.64;100134.56;4855821;29;20459;-71
2024/03/07 06:39:28;;;;;;;11.20;5.67;;;;;;;-1.49;46.16;100126.38;4857568;29;20059;-71
2024/03/07 06:41:54;;;;;;;12.17;5.30;;;;;;;-1.37;45.65;100126.66;4867857;29;20415;-71
2024/03/07 06:44:23;;;;;;;9.93;4.23;;;;;;;-1.19;45.26;100120.59;4867462;29;20430;-71
2024/03/07 06:46:50;;;;;;;20.03;5.30;;;;;;;-1.00;44.79;100116.16;4867571;29;20168;-71
2024/03/07 06:49:18;;;;;;;11.53;5.30;;;;;;;-0.79;44.14;100111.66;4867593;29;20522;-72
2024/03/07 06:51:46;;;;;;;18.25;5.28;;;;;;;-0.65;43.32;100112.69;4882786;29;20146;-72
2024/03/07 06:54:12;;;;;;;13.23;4.87;;;;;;;-0.47;42.96;100103.91;4867261;29;20214;-72
2024/03/07 06:56:39;;;;;;;11.00;4.37;;;;;;;-0.37;42.42;100104.31;4867207;29;20056;-71
2024/03/07 06:59:07;;;;;;;14.10;5.13;;;;;;;-0.11;42.57;100099.41;4877600;29;20059;-72
2024/03/07 07:01:36;;;;;;;18.00;5.13;;;;;;;0.10;42.76;100096.56;4887437;28;20043;-72
2024/03/07 07:04:03;;;;;;;14.70;5.47;;;;;;;0.19;42.10;100099.56;4939621;28;20094;-71
2024/03/07 07:06:29;;;;;;;17.97;5.67;;;;;;;0.39;41.99;100094.09;4947314;28;20045;-71
2024/03/07 07:08:58;;;;;;;13.87;5.00;;;;;;;0.65;41.72;100097.88;4998738;28;20103;-72
2024/03/07 07:11:25;;;;;;;14.60;4.63;;;;;;;0.83;40.79;100095.09;4982721;28;20049;-71
2024/03/07 07:13:51;;;;;;;9.77;4.40;;;;;;;1.13;39.82;100098.59;5031467;28;20136;-72
2024/03/07 07:16:19;;;;;;;9.87;4.03;;;;;;;1.31;39.04;100094.91;5001054;28;20073;-71
2024/03/07 07:18:53;;;;;;;14.70;4.80;;;;;;;1.66;38.76;100087.63;4961218;28;20166;-71
2024/03/07 07:21:19;;;;;;;7.87;4.07;;;;;;;2.00;37.73;100082.00;4957666;28;20058;-71
2024/03/07 07:23:45;;;;;;;10.97;3.80;;;;;;;2.49;37.22;100079.81;4956546;28;20489;-72
2024/03/07 07:26:13;;;;;;;14.50;5.20;;;;;;;3.29;36.49;100080.66;4993012;28;20085;-72
2024/03/07 07:28:40;;;;;;;11.23;5.20;;;;;;;5.20;35.01;100081.00;4977733;28;20053;-72
2024/03/07 07:31:07;;;;;;;11.35;5.80;;;;;;;8.49;31.11;100083.97;5009993;28;20446;-72
2024/03/07 07:33:36;;;;;;;6.38;4.00;;;;;;;12.19;26.89;100079.25;4993713;28;20070;-72
2024/03/07 07:36:02;;;;;;;6.00;3.80;;;;;;;15.06;22.40;100083.06;4993429;28;20092;-72
2024/03/07 07:38:42;;;;;;;9.88;3.78;;;;;;;17.79;19.54;100084.63;4977479;28;20061;-73
2024/03/07 07:41:10;;;;;;;6.45;3.63;;;;;;;19.84;17.25;100082.53;4977351;28;20061;-73
2024/03/07 07:43:36;;;;;;;5.93;3.33;;;;;;;21.16;15.56;100080.25;4993204;28;20523;-73
2024/03/07 07:46:06;;;;;;;4.88;3.95;;;;;;;22.20;14.50;100078.72;4958201;28;20062;-73
2024/03/07 07:48:33;;;;;;;4.35;3.35;;;;;;;23.15;13.41;100069.97;4942405;28;20059;-73
2024/03/07 07:51:00;;;;;;;7.72;4.15;;;;;;;24.19;12.98;100062.13;4945730;28;20088;-73
2024/03/07 07:53:29;;;;;;;6.00;3.97;;;;;;;25.00;12.27;100070.22;5016419;28;20088;-73
2024/03/07 07:56:01;;;;;;;4.15;3.40;;;;;;;25.65;12.17;100064.19;5016841;28;20068;-73
2024/03/07 07:58:27;;;;;;;4.53;3.40;;;;;;;26.22;11.48;100062.16;5000774;28;20040;-73
2024/03/07 08:00:53;;;;;;;8.25;3.40;;;;;;;26.80;11.11;100050.75;5020169;28;20151;-74
2024/03/07 08:03:22;;;;;;;7.03;3.58;;;;;;;27.10;10.75;100051.13;5036696;28;20573;-73
2024/03/07 08:05:52;;;;;;;6.63;3.35;;;;;;;26.99;10.15;100042.00;5020141;28;20076;-73
2024/03/07 08:08:20;;;;;;;5.43;3.33;;;;;;;27.40;10.03;100043.31;5037014;28;20457;-73
2024/03/07 08:10:49;;;;;;;4.53;3.25;;;;;;;27.77;9.90;100033.28;5036581;28;20053;-73
2024/03/07 08:13:22;;;;;;;5.78;3.40;;;;;;;28.13;9.43;100029.78;4955159;28;20061;-73
2024/03/07 08:15:53;;;;;;;5.38;3.35;;;;;;;28.32;9.59;100022.81;5034867;28;20048;-74
2024/03/07 08:18:21;;;;;;;4.45;3.30;;;;;;;28.78;9.09;100024.72;5016854;28;20080;-73
2024/03/07 08:20:51;;;;;;;4.53;3.47;;;;;;;28.62;8.96;100017.53;5000242;28;20411;-74
2024/03/07 08:23:18;;;;;;;5.30;3.70;;;;;;;28.74;8.65;100015.41;5000961;28;20092;-74
2024/03/07 08:25:46;;;;;;;6.70;3.55;;;;;;;28.95;8.63;100017.16;4997341;28;20062;-74
2024/03/07 08:28:12;;;;;;;5.22;3.60;;;;;;;29.43;8.30;100018.66;4997172;28;20148;-74
2024/03/07 08:30:41;;;;;;;4.70;2.63;;;;;;;29.56;8.74;100007.16;4980470;28;20132;-74
2024/03/07 08:33:08;;;;;;;5.65;2.95;;;;;;;28.92;8.61;100003.19;4980293;28;20046;-74
2024/03/07 08:35:35;;;;;;;5.88;3.25;;;;;;;28.28;8.59;100007.22;4980783;28;20076;-74
2024/03/07 08:38:01;;;;;;;4.53;3.50;;;;;;;28.08;8.56;99998.91;4980572;28;20523;-74
2024/03/07 08:40:32;;;;;;;7.30;3.20;;;;;;;28.08;8.47;99994.22;4922307;29;20062;-74
2024/03/07 08:42:59;;;;;;;4.47;3.28;;;;;;;28.11;8.60;99993.69;4938323;29;20134;-75
2024/03/07 08:45:28;;;;;;;4.28;3.28;;;;;;;28.74;8.52;99993.53;4922471;28;20062;-74
2024/03/07 08:47:55;;;;;;;4.15;3.67;;;;;;;28.96;8.25;99993.31;4954354;28;20058;-74
2024/03/07 08:50:23;;;;;;;5.30;2.92;;;;;;;28.72;8.16;99978.50;4938345;28;20058;-74
2024/03/07 08:52:51;;;;;;;4.85;3.50;;;;;;;29.34;8.01;99988.25;4938062;28;20387;-74
2024/03/07 08:55:22;;;;;;;5.03;3.75;;;;;;;29.42;8.01;99982.25;4938097;29;20474;-74
2024/03/07 08:57:49;;;;;;;3.88;3.10;;;;;;;29.42;7.69;99981.41;4953944;28;20149;-74
2024/03/07 09:00:23;;;;;;;5.72;3.22;;;;;;;29.19;7.96;99979.19;4926932;29;20061;-74
2024/03/07 09:02:59;;;;;;;4.28;3.85;;;;;;;28.84;7.99;99974.44;4896631;29;20099;-74
2024/03/07 09:05:26;;;;;;;3.60;3.30;;;;;;;29.68;7.91;99979.56;4862180;29;20602;-73
2024/03/07 09:07:54;;;;;;;4.18;3.15;;;;;;;30.22;7.50;99966.91;4862877;29;20056;-74
2024/03/07 09:10:21;;;;;;;4.65;3.42;;;;;;;30.07;7.58;99964.16;4839759;29;20153;-74
2024/03/07 09:12:50;;;;;;;2.95;2.72;;;;;;;30.18;7.37;99965.78;4822538;29;20442;-74
2024/03/07 09:15:17;;;;;;;3.38;2.72;;;;;;;30.44;7.50;99965.47;4838280;29;20158;-74
2024/03/07 09:17:47;;;;;;;4.80;3.28;;;;;;;29.81;7.46;99949.69;4858852;29;20370;-73
2024/03/07 09:20:16;;;;;;;3.45;2.90;;;;;;;29.36;7.39;99944.19;4828595;29;20197;-73
2024/03/07 09:22:48;;;;;;;4.13;3.08;;;;;;;29.18;7.55;99956.50;4874526;29;20488;-73
2024/03/07 09:25:16;;;;;;;3.45;2.90;;;;;;;28.69;7.81;99935.28;4860991;29;20057;-73
2024/03/07 09:27:45;;;;;;;6.97;3.38;;;;;;;28.58;7.89;99942.63;4859066;29;20076;-73
2024/03/07 09:30:14;;;;;;;5.35;3.10;;;;;;;28.74;7.79;99935.31;4861379;29;20071;-74
2024/03/07 09:32:47;;;;;;;6.35;3.47;;;;;;;29.62;7.71;99937.63;4900006;29;20408;-74
2024/03/07 09:35:13;;;;;;;3.75;3.10;;;;;;;29.98;7.15;99930.22;4900070;29;20056;-74
2024/03/07 09:37:41;;;;;;;5.47;3.13;;;;;;;30.10;7.42;99936.22;4902886;29;20179;-74
2024/03/07 09:40:09;;;;;;;5.00;3.10;;;;;;;29.80;7.04;99925.31;4887264;29;20063;-74
2024/03/07 09:42:42;;;;;;;3.58;3.00;;;;;;;30.04;7.63;99931.84;4937519;29;20127;-73
2024/03/07 09:45:18;;;;;;;3.45;2.60;;;;;;;30.20;7.61;99930.75;4953102;29;20193;-74
2024/03/07 09:47:49;;;;;;;4.68;2.45;;;;;;;30.11;7.54;99930.44;4956563;28;20079;-74
2024/03/07 09:50:21;;;;;;;2.63;2.08;;;;;;;29.87;7.51;99925.84;4976147;28;20046;-74
2024/03/07 09:52:52;;;;;;;4.60;2.63;;;;;;;29.41;7.28;99922.31;4975388;28;20054;-74
2024/03/07 09:55:23;;;;;;;6.03;3.00;;;;;;;28.56;7.51;99920.19;4959437;28;20046;-74
2024/03/07 09:57:50;;;;;;;3.40;2.55;;;;;;;27.11;8.37;99911.78;4975630;28;20082;-74
2024/03/07 10:00:25;;;;;;;3.13;2.30;;;;;;;27.34;8.51;99916.13;4998998;28;20057;-74
2024/03/07 10:03:02;;;;;;;3.85;2.30;;;;;;;27.94;8.17;99908.38;4998036;28;20507;-74
2024/03/07 10:05:33;;;;;;;5.47;2.60;;;;;;;27.29;8.15;99913.34;4998895;28;20468;-74
2024/03/07 10:08:02;;;;;;;2.28;2.08;;;;;;;27.09;8.36;99911.25;5031509;28;20063;-74
2024/03/07 10:10:30;;;;;;;2.72;2.45;;;;;;;25.81;8.88;99913.72;4998779;28;20440;-73
2024/03/07 10:12:58;;;;;;;3.03;2.53;;;;;;;25.09;9.01;99911.94;4998696;28;20045;-73
2024/03/07 10:15:29;;;;;;;2.47;2.28;;;;;;;25.36;9.43;99901.28;4998345;28;20111;-73
2024/03/07 10:18:00;;;;;;;3.85;2.60;;;;;;;25.19;9.02;99906.69;4998545;28;20033;-73
2024/03/07 10:20:27;;;;;;;2.65;2.35;;;;;;;25.71;9.44;99897.22;4982975;28;20155;-73
2024/03/07 10:23:00;;;;;;;4.63;3.00;;;;;;;25.41;9.16;99896.75;4999001;28;20045;-73
2024/03/07 10:25:32;;;;;;;4.10;2.88;;;;;;;24.81;9.47;99884.81;5021493;28;20061;-73
2024/03/07 10:28:01;;;;;;;2.95;2.53;;;;;;;25.71;9.36;99883.59;5052280;28;20092;-73
2024/03/07 10:30:29;;;;;;;3.83;2.70;;;;;;;25.50;9.21;99887.09;5003151;28;20048;-73
2024/03/07 10:32:59;;;;;;;4.57;2.63;;;;;;;23.69;9.97;99890.84;5036022;28;20060;-73
2024/03/07 10:35:26;;;;;;;3.92;2.72;;;;;;;24.31;10.03;99897.38;5034338;28;20403;-73
2024/03/07 10:38:06;;;;;;;3.67;2.90;;;;;;;25.66;9.56;99888.16;4977990;28;20046;-73
2024/03/07 10:40:37;;;;;;;3.00;2.70;;;;;;;26.56;9.01;99892.09;5010503;28;20046;-73
2024/03/07 10:43:09;;;;;;;2.80;2.60;;;;;;;25.23;9.50;99880.66;4994187;28;20069;-73
2024/03/07 10:45:56;;;;;;;3.83;1.98;;;;;;;24.14;10.00;99885.63;5010278;28;20049;-73
2024/03/07 10:48:27;;;;;;;3.45;2.20;;;;;;;24.42;10.23;99872.91;4977733;28;20111;-73
2024/03/07 10:51:49;;;;;;;3.28;2.55;;;;;;;25.69;9.87;99864.00;4977598;28;20052;-73
2024/03/07 10:54:38;;;;;;;3.35;2.30;;;;;;;24.52;9.77;99870.38;4946035;28;20175;-73
2024/03/07 10:57:25;;;;;;;3.05;2.75;;;;;;;25.26;10.15;99861.13;4977730;28;20049;-73
2024/03/07 10:59:57;;;;;;;3.33;2.67;;;;;;;26.27;9.63;99863.44;4994026;28;20469;-73
2024/03/07 11:02:44;;;;;;;2.85;2.58;;;;;;;26.51;9.45;99864.78;4977590;28;20042;-73
2024/03/07 11:05:15;;;;;;;4.32;2.60;;;;;;;27.13;8.97;99852.38;4970556;28;20109;-73
2024/03/07 11:07:44;;;;;;;3.13;2.63;;;;;;;27.30;9.22;99849.53;4942416;28;20484;-73
2024/03/07 11:10:14;;;;;;;2.20;2.10;;;;;;;27.68;9.02;99850.06;5033328;28;20041;-73
2024/03/07 11:12:41;;;;;;;2.22;1.90;;;;;;;28.32;8.82;99858.06;5000590;28;20132;-73
2024/03/07 11:15:14;;;;;;;2.30;2.10;;;;;;;28.71;8.39;99849.16;5000274;28;20088;-73
2024/03/07 11:17:44;;;;;;;3.75;2.38;;;;;;;28.15;8.55;99847.34;5002074;28;20147;-73
2024/03/07 11:20:38;;;;;;;2.33;1.90;;;;;;;28.56;8.62;99840.94;5000668;28;20048;-73
2024/03/07 11:23:49;;;;;;;3.50;2.03;;;;;;;28.59;8.59;99836.84;5009839;28;20045;-73
2024/03/07 11:26:15;;;;;;;4.50;2.70;;;;;;;28.82;8.75;99842.63;4993564;28;20562;-73
2024/03/07 11:28:42;;;;;;;5.55;3.70;;;;;;;28.29;8.91;99851.22;4994065;28;20143;-73
2024/03/07 11:31:13;;;;;;;5.20;3.47;;;;;;;28.17;8.65;99845.16;4961452;28;20404;-73
2024/03/07 11:33:43;;;;;;;7.35;4.07;;;;;;;27.96;8.90;99835.22;4995478;28;20046;-73
2024/03/07 11:36:16;;;;;;;6.10;3.35;;;;;;;28.20;8.79;99833.69;4949873;28;20054;-73
2024/03/07 11:38:53;;;;;;;7.75;2.78;;;;;;;28.09;8.69;99826.56;4966480;28;20057;-73